Canarana, Brazil
Current Conditions -  °F | °C
As of 5:00 PM on Friday 21 Nov 2014 (Local Time) from SBPL Reporting Station
Scattered Clouds Scattered Clouds  
Wind Chill: 90°   Ceiling: Unl
Heat Index: 95°   Visibility: 6mi
Dew Point: 70°   Wind: 10mph
Humidity: 52%   Direction: 160°SSE
Pressure: 29.85"   Gusts: NA
Location:  11.68°S, 41.77°W
Report Text: SBPL 212000Z 16009KT 9999 SCT040 32/21 Q1011
Loading
Personal Weather Stations






























Interactive Weather Map New forecast layout! Learn more

10-Day Weather Forecast

Advertisements
Track Severe Weather on mobile